Mc Carley, Mississippi
Current Conditions -  °F | °C
As of 4:53 PM on Monday 22 Dec 2014 (Local Time) from KGWO Reporting Station
Overcast Overcast  
Wind Chill: 16°   Ceiling: 900
Heat Index: 16°   Visibility: 10mi
Dew Point: 14°   Wind: 12mph
Humidity: 90%   Direction: 160°SSE
Pressure: 29.63"   Gusts: NA
Location:  33.5217°N, 89.8329°W
Report Text: KGWO 222253Z AUTO 16010KT 10SM BKN009 OVC016 16/14 A2963 RMK AO2 SLP034 T01560139
Loading
Personal Weather Stations






























Interactive Weather Map New forecast layout! Learn more

10-Day Weather Forecast

Advertisements
Track Severe Weather on mobile